RJSN(METAR)
05/26 18:00
METAR RJSN 260900Z 35004KT 9999 FEW040 SCT080 OVC150 19/16 Q1006 RMK
1CU040 3AC080 8AS150 A2973=
戻る
トップページへ戻る
IMOC Co,.Ltd.